Terminal Aerodrome Forecast
Issued by NWS Louisville, KY

Home | Current Version | Previous Version | Text Only | Print | Product List | Glossary On
Versions: 1 2 3 4 5 6 7 8 9 10 11 12 13 14 15
102
FTUS43 KLMK 211121
TAFLEX
TAF
KLEX 211121Z 2112/2212 18008KT P6SM BKN150
     FM211600 19010G16KT P6SM SCT030 BKN100
     FM220000 14004KT P6SM VCSH SCT025 BKN100
     FM221000 10006KT 6SM -SHRA BKN015=

USA.gov is the U.S. government's official web portal to all federal, state and local government web resources and services.